TimeCST,TemperatureF,Dew PointF,Humidity,Sea Level PressureIn,VisibilityMPH,Wind Direction,Wind SpeedMPH,Gust SpeedMPH,PrecipitationIn,Events,Conditions,WindDirDegrees,DateUTC
12:53 AM,30.9,19.0,61,30.35,10.0,NNW,6.9,-,N/A,,Clear,340,2012-11-24 06:53:00
1:53 AM,28.9,19.0,67,30.35,10.0,NNW,6.9,-,N/A,,Clear,330,2012-11-24 07:53:00
2:53 AM,28.0,19.0,69,30.34,10.0,NNW,5.8,-,N/A,,Clear,330,2012-11-24 08:53:00
3:53 AM,24.1,19.0,81,30.34,10.0,West,3.5,-,N/A,,Clear,280,2012-11-24 09:53:00
4:53 AM,23.0,16.0,74,30.35,10.0,WNW,5.8,-,N/A,,Clear,300,2012-11-24 10:53:00
5:53 AM,21.9,17.1,82,30.36,10.0,WNW,5.8,-,N/A,,Clear,290,2012-11-24 11:53:00
6:53 AM,23.0,18.0,81,30.36,10.0,NW,4.6,-,N/A,,Clear,310,2012-11-24 12:53:00
7:53 AM,28.0,21.0,75,30.38,10.0,WNW,5.8,-,N/A,,Clear,290,2012-11-24 13:53:00
8:53 AM,30.0,18.0,61,30.38,10.0,WNW,8.1,-,N/A,,Clear,300,2012-11-24 14:53:00
9:53 AM,32.0,18.0,56,30.38,10.0,NW,8.1,-,N/A,,Clear,310,2012-11-24 15:53:00
10:53 AM,34.0,19.0,54,30.37,10.0,WNW,5.8,-,N/A,,Clear,300,2012-11-24 16:53:00
11:53 AM,36.0,19.0,50,30.33,10.0,NW,4.6,-,N/A,,Clear,310,2012-11-24 17:53:00
12:53 PM,37.9,19.9,48,30.30,10.0,NNW,5.8,-,N/A,,Clear,340,2012-11-24 18:53:00
1:53 PM,39.0,19.0,45,30.27,10.0,Calm,Calm,-,N/A,,Clear,0,2012-11-24 19:53:00
2:53 PM,39.0,19.0,45,30.26,10.0,Calm,Calm,-,N/A,,Clear,0,2012-11-24 20:53:00
3:53 PM,39.9,19.9,45,30.24,10.0,Calm,Calm,-,N/A,,Clear,0,2012-11-24 21:53:00
4:53 PM,36.0,21.0,55,30.22,10.0,SE,3.5,-,N/A,,Clear,130,2012-11-24 22:53:00
5:53 PM,32.0,21.9,66,30.21,10.0,Calm,Calm,-,N/A,,Clear,0,2012-11-24 23:53:00
6:53 PM,30.9,23.0,72,30.20,10.0,South,5.8,-,N/A,,Clear,170,2012-11-25 00:53:00
7:53 PM,30.9,23.0,72,30.19,10.0,South,4.6,-,N/A,,Clear,180,2012-11-25 01:53:00
8:53 PM,30.9,23.0,72,30.17,10.0,South,5.8,-,N/A,,Clear,170,2012-11-25 02:53:00
9:53 PM,30.9,24.1,76,30.14,10.0,South,6.9,-,N/A,,Clear,170,2012-11-25 03:53:00
10:53 PM,32.0,23.0,69,30.14,10.0,South,6.9,-,N/A,,Clear,180,2012-11-25 04:53:00
11:53 PM,30.9,23.0,72,30.13,10.0,South,5.8,-,N/A,,Clear,190,2012-11-25 05:53:00